Townsend, MT

3:22 PM MDT on April 18, 2015 (GMT -0600)
Townsend Seeds | | Change Station
CLOSE
Current Station
Personal Weather Station
Location: Townsend, MT
Elevation: 3825 ft
Nearby Weather Stations

Elev 3825 ft 46.32 °N, 111.52 °W | Updated 20 seconds ago

Overcast
Overcast
48.9 °F
Feels Like 44 °F
N
13.6
Wind Variable Wind from NNE
Gusts 16.8 mph

Today
High -- | Low -- °F
--% Chance of Precip.
Yesterday
High -- | Low -- °F
Precip. -- in
6:34 AM 8:17 PM
New Moon, 0% visible
Pressure 30.33 in
Visibility 10.0 miles
Clouds Overcast 6000 ft
Windchill 44 °F
Dew Point 26 °F
Humidity 41%
Rainfall 0.00 in
Snow Depth Not available.
UV 2 out of 12
Pollen 9.10 out of 12
Air Quality Not available.
Flu Activity Regional
METAR KHLN 182053Z AUTO 34014G20KT 10SM OVC060 09/M01 A3027 RMK AO2 SLP270 T00891011 51004 TSNO

More Conditions Fewer Conditions

Pressure 30.33 in
Visibility 10.0 miles
Clouds Overcast 6000 ft
Windchill 44 °F
Dew Point 26 °F
Humidity 41%
Rainfall 0.00 in
Snow Depth Not available.
UV 2 out of 12
Pollen 9.10 out of 12
Air Quality Not available.
Flu Activity Regional
METAR KHLN 182053Z AUTO 34014G20KT 10SM OVC060 09/M01 A3027 RMK AO2 SLP270 T00891011 51004 TSNO

More Conditions Fewer Conditions

10-Day Weather Forecast

Almanac

Astronomy

Apr. 18, 2015 Rise Set
Actual Time
Civil Twilight
Nautical Twilight
Astronomical Twilight
Moon
Length of Visible Light
Length of Day
Tomorrow will be .
, % of the Moon is Illuminated

Today's Extremes

State Highs State Lows

Community

WunderPhotos

Upload Photos

1,814,531 photos uploaded!

WunderBlogs® & News

Nearby

Air Quality

  Air Quality AQ Index Pollutant
Not available.

Snow Depth

Station Depth Elevation

Earthquake Activity

City Distance Mag. Time & Date
Minimum magnitude displayed is 2.5.

Coastal Water Temperatures

Place Temperature

Stations

Nearby Weather Stations

Station Location Temp. Windchill Dew Point Humidity Wind Precip. Elev Updated Type